sensor_id;sensor_type;location;lat;lon;timestamp;pressure;altitude;pressure_sealevel;temperature;humidity
38880;BME280;25887;30.194;-97.880;2023-03-03T00:01:10;96308.88;;;27.41;55.59
38880;BME280;25887;30.194;-97.880;2023-03-03T00:03:40;96302.06;;;27.39;55.78
38880;BME280;25887;30.194;-97.880;2023-03-03T00:06:07;96286.56;;;27.36;55.61
38880;BME280;25887;30.194;-97.880;2023-03-03T00:08:35;96294.63;;;27.34;55.41
38880;BME280;25887;30.194;-97.880;2023-03-03T00:11:09;96296.63;;;27.32;55.62
38880;BME280;25887;30.194;-97.880;2023-03-03T00:13:49;96285.38;;;27.30;55.70
38880;BME280;25887;30.194;-97.880;2023-03-03T00:16:22;96273.34;;;27.28;55.71
38880;BME280;25887;30.194;-97.880;2023-03-03T00:18:49;96277.25;;;27.24;55.51
38880;BME280;25887;30.194;-97.880;2023-03-03T00:21:28;96263.25;;;27.23;55.52
38880;BME280;25887;30.194;-97.880;2023-03-03T00:26:31;96247.53;;;27.13;55.69
38880;BME280;25887;30.194;-97.880;2023-03-03T00:29:00;96240.78;;;27.11;55.87
38880;BME280;25887;30.194;-97.880;2023-03-03T00:33:52;96245.81;;;27.04;55.71
38880;BME280;25887;30.194;-97.880;2023-03-03T00:38:51;96233.38;;;26.97;56.03
38880;BME280;25887;30.194;-97.880;2023-03-03T00:41:25;96235.66;;;26.91;56.63
38880;BME280;25887;30.194;-97.880;2023-03-03T00:43:51;96247.50;;;26.87;56.35
38880;BME280;25887;30.194;-97.880;2023-03-03T00:46:18;96252.22;;;26.84;56.66
38880;BME280;25887;30.194;-97.880;2023-03-03T00:49:01;96251.88;;;26.79;56.66
38880;BME280;25887;30.194;-97.880;2023-03-03T00:51:34;96239.00;;;26.76;56.61
38880;BME280;25887;30.194;-97.880;2023-03-03T00:54:00;96234.19;;;26.71;56.52
38880;BME280;25887;30.194;-97.880;2023-03-03T00:59:29;96220.13;;;26.62;57.02
38880;BME280;25887;30.194;-97.880;2023-03-03T01:02:13;96211.84;;;26.57;56.73
38880;BME280;25887;30.194;-97.880;2023-03-03T01:04:39;96213.81;;;26.55;57.14
38880;BME280;25887;30.194;-97.880;2023-03-03T01:07:06;96226.59;;;26.50;57.31
38880;BME280;25887;30.194;-97.880;2023-03-03T01:09:31;96254.91;;;26.48;57.15
38880;BME280;25887;30.194;-97.880;2023-03-03T01:11:57;96268.34;;;26.45;57.15
38880;BME280;25887;30.194;-97.880;2023-03-03T01:14:33;96295.66;;;26.44;57.00
38880;BME280;25887;30.194;-97.880;2023-03-03T01:17:01;96279.03;;;26.44;57.00
38880;BME280;25887;30.194;-97.880;2023-03-03T01:19:57;96290.56;;;26.43;57.06
38880;BME280;25887;30.194;-97.880;2023-03-03T01:22:22;96408.22;;;26.42;57.11
38880;BME280;25887;30.194;-97.880;2023-03-03T01:24:48;96663.50;;;26.44;57.62
38880;BME280;25887;30.194;-97.880;2023-03-03T01:27:14;96679.97;;;26.36;55.05
38880;BME280;25887;30.194;-97.880;2023-03-03T01:29:58;96683.72;;;26.04;51.72
38880;BME280;25887;30.194;-97.880;2023-03-03T01:32:24;96616.06;;;25.66;51.54
38880;BME280;25887;30.194;-97.880;2023-03-03T01:34:50;96625.94;;;25.24;51.07
38880;BME280;25887;30.194;-97.880;2023-03-03T01:37:16;96685.72;;;24.80;50.05
38880;BME280;25887;30.194;-97.880;2023-03-03T01:39:42;96674.06;;;24.31;49.80
38880;BME280;25887;30.194;-97.880;2023-03-03T01:42:08;96678.06;;;23.82;49.63
38880;BME280;25887;30.194;-97.880;2023-03-03T01:44:33;96612.72;;;23.36;49.23
38880;BME280;25887;30.194;-97.880;2023-03-03T01:49:36;96738.31;;;22.46;50.41
38880;BME280;25887;30.194;-97.880;2023-03-03T01:52:08;96782.84;;;22.10;50.95
38880;BME280;25887;30.194;-97.880;2023-03-03T01:54:41;96859.97;;;21.79;50.75
38880;BME280;25887;30.194;-97.880;2023-03-03T01:57:12;96842.94;;;21.48;51.24
38880;BME280;25887;30.194;-97.880;2023-03-03T01:59:41;96786.50;;;21.20;51.78
38880;BME280;25887;30.194;-97.880;2023-03-03T02:02:20;96771.84;;;20.92;51.95
38880;BME280;25887;30.194;-97.880;2023-03-03T02:04:48;96800.13;;;20.72;52.12
38880;BME280;25887;30.194;-97.880;2023-03-03T02:07:14;96824.72;;;20.55;52.62
38880;BME280;25887;30.194;-97.880;2023-03-03T02:12:10;96798.44;;;20.31;53.05
38880;BME280;25887;30.194;-97.880;2023-03-03T02:14:37;96800.69;;;20.23;53.29
38880;BME280;25887;30.194;-97.880;2023-03-03T02:17:03;96802.09;;;20.15;53.16
38880;BME280;25887;30.194;-97.880;2023-03-03T02:19:32;96827.75;;;20.08;53.28
38880;BME280;25887;30.194;-97.880;2023-03-03T02:22:00;96815.19;;;20.00;53.44
38880;BME280;25887;30.194;-97.880;2023-03-03T02:27:03;96777.97;;;19.84;53.45
38880;BME280;25887;30.194;-97.880;2023-03-03T02:29:32;96766.28;;;19.77;53.57
38880;BME280;25887;30.194;-97.880;2023-03-03T02:31:58;96789.53;;;19.66;53.51
38880;BME280;25887;30.194;-97.880;2023-03-03T02:34:25;96803.88;;;19.59;53.37
38880;BME280;25887;30.194;-97.880;2023-03-03T02:37:03;96816.50;;;19.51;53.63
38880;BME280;25887;30.194;-97.880;2023-03-03T02:39:28;96835.19;;;19.43;53.50
38880;BME280;25887;30.194;-97.880;2023-03-03T02:41:57;96846.06;;;19.35;53.55
38880;BME280;25887;30.194;-97.880;2023-03-03T02:44:28;96890.69;;;19.29;53.68
38880;BME280;25887;30.194;-97.880;2023-03-03T02:46:55;96871.81;;;19.26;53.72
38880;BME280;25887;30.194;-97.880;2023-03-03T02:49:23;96871.16;;;19.22;53.61
38880;BME280;25887;30.194;-97.880;2023-03-03T02:51:49;96854.78;;;19.20;53.59
38880;BME280;25887;30.194;-97.880;2023-03-03T02:54:16;96865.38;;;19.17;53.54
38880;BME280;25887;30.194;-97.880;2023-03-03T02:56:57;96883.72;;;19.15;53.47
38880;BME280;25887;30.194;-97.880;2023-03-03T03:02:15;96886.56;;;19.11;53.06
38880;BME280;25887;30.194;-97.880;2023-03-03T03:04:43;96903.03;;;19.11;53.12
38880;BME280;25887;30.194;-97.880;2023-03-03T03:07:09;96899.50;;;19.12;53.26
38880;BME280;25887;30.194;-97.880;2023-03-03T03:09:36;96879.50;;;19.13;52.92
38880;BME280;25887;30.194;-97.880;2023-03-03T03:12:15;96866.56;;;19.11;52.74
38880;BME280;25887;30.194;-97.880;2023-03-03T03:15:01;96870.75;;;19.14;52.70
38880;BME280;25887;30.194;-97.880;2023-03-03T03:17:27;96895.13;;;19.13;52.59
38880;BME280;25887;30.194;-97.880;2023-03-03T03:19:53;96902.09;;;19.12;52.46
38880;BME280;25887;30.194;-97.880;2023-03-03T03:22:19;96896.78;;;19.14;51.97
38880;BME280;25887;30.194;-97.880;2023-03-03T03:24:45;96899.41;;;19.14;51.57
38880;BME280;25887;30.194;-97.880;2023-03-03T03:27:27;96917.63;;;19.14;51.38
38880;BME280;25887;30.194;-97.880;2023-03-03T03:29:56;96906.38;;;19.13;50.75
38880;BME280;25887;30.194;-97.880;2023-03-03T03:32:22;96902.94;;;19.13;50.33
38880;BME280;25887;30.194;-97.880;2023-03-03T03:34:49;96936.78;;;19.13;49.91
38880;BME280;25887;30.194;-97.880;2023-03-03T03:37:15;96986.16;;;19.14;49.61
38880;BME280;25887;30.194;-97.880;2023-03-03T03:40:09;97015.72;;;19.13;49.90
38880;BME280;25887;30.194;-97.880;2023-03-03T03:42:36;97000.94;;;19.14;49.11
38880;BME280;25887;30.194;-97.880;2023-03-03T03:45:05;97007.16;;;19.11;49.67
38880;BME280;25887;30.194;-97.880;2023-03-03T03:47:30;97018.00;;;19.04;49.72
38880;BME280;25887;30.194;-97.880;2023-03-03T03:52:45;97041.50;;;18.86;49.70
38880;BME280;25887;30.194;-97.880;2023-03-03T03:55:11;97052.34;;;18.79;49.67
38880;BME280;25887;30.194;-97.880;2023-03-03T03:57:37;97062.06;;;18.75;49.63
38880;BME280;25887;30.194;-97.880;2023-03-03T04:00:04;97068.34;;;18.71;49.52
38880;BME280;25887;30.194;-97.880;2023-03-03T04:02:30;97072.88;;;18.68;49.49
38880;BME280;25887;30.194;-97.880;2023-03-03T04:04:55;97097.22;;;18.67;49.25
38880;BME280;25887;30.194;-97.880;2023-03-03T04:07:23;97126.66;;;18.67;49.44
38880;BME280;25887;30.194;-97.880;2023-03-03T04:09:49;97157.88;;;18.67;49.33
38880;BME280;25887;30.194;-97.880;2023-03-03T04:12:15;97121.47;;;18.67;49.23
38880;BME280;25887;30.194;-97.880;2023-03-03T04:14:41;97103.34;;;18.65;49.26
38880;BME280;25887;30.194;-97.880;2023-03-03T04:17:06;97095.59;;;18.64;48.89
38880;BME280;25887;30.194;-97.880;2023-03-03T04:20:07;97115.66;;;18.62;48.65
38880;BME280;25887;30.194;-97.880;2023-03-03T04:22:33;97099.28;;;18.60;48.77
38880;BME280;25887;30.194;-97.880;2023-03-03T04:25:00;97064.47;;;18.62;48.42
38880;BME280;25887;30.194;-97.880;2023-03-03T04:27:33;97074.97;;;18.61;48.69
38880;BME280;25887;30.194;-97.880;2023-03-03T04:29:59;97068.00;;;18.61;48.59
38880;BME280;25887;30.194;-97.880;2023-03-03T04:32:25;97043.75;;;18.61;48.41
38880;BME280;25887;30.194;-97.880;2023-03-03T04:34:51;97061.94;;;18.61;48.44
38880;BME280;25887;30.194;-97.880;2023-03-03T04:37:17;97074.13;;;18.60;48.44
38880;BME280;25887;30.194;-97.880;2023-03-03T04:39:43;97147.00;;;18.59;48.22
38880;BME280;25887;30.194;-97.880;2023-03-03T04:42:09;97196.44;;;18.59;48.07
38880;BME280;25887;30.194;-97.880;2023-03-03T04:44:34;97238.06;;;18.59;48.16
38880;BME280;25887;30.194;-97.880;2023-03-03T04:47:00;97165.38;;;18.56;48.22
38880;BME280;25887;30.194;-97.880;2023-03-03T04:49:52;97168.28;;;18.50;48.38
38880;BME280;25887;30.194;-97.880;2023-03-03T04:52:21;97152.41;;;18.38;48.34
38880;BME280;25887;30.194;-97.880;2023-03-03T04:54:47;97184.09;;;18.29;48.47
38880;BME280;25887;30.194;-97.880;2023-03-03T04:57:12;97133.44;;;18.19;48.49
38880;BME280;25887;30.194;-97.880;2023-03-03T04:59:38;97137.34;;;18.10;48.60
38880;BME280;25887;30.194;-97.880;2023-03-03T05:02:04;97236.56;;;18.01;48.94
38880;BME280;25887;30.194;-97.880;2023-03-03T05:04:30;97242.97;;;17.94;48.88
38880;BME280;25887;30.194;-97.880;2023-03-03T05:06:56;97240.66;;;17.88;49.04
38880;BME280;25887;30.194;-97.880;2023-03-03T05:09:22;97286.75;;;17.85;49.24
38880;BME280;25887;30.194;-97.880;2023-03-03T05:11:48;97291.31;;;17.79;49.32
38880;BME280;25887;30.194;-97.880;2023-03-03T05:14:13;97270.75;;;17.75;49.22
38880;BME280;25887;30.194;-97.880;2023-03-03T05:16:40;97269.19;;;17.71;49.54
38880;BME280;25887;30.194;-97.880;2023-03-03T05:19:26;97272.81;;;17.67;49.60
38880;BME280;25887;30.194;-97.880;2023-03-03T05:21:54;97287.69;;;17.63;49.65
38880;BME280;25887;30.194;-97.880;2023-03-03T05:24:20;97282.66;;;17.60;49.75
38880;BME280;25887;30.194;-97.880;2023-03-03T05:26:46;97264.66;;;17.55;49.87
38880;BME280;25887;30.194;-97.880;2023-03-03T05:29:12;97251.91;;;17.51;49.83
38880;BME280;25887;30.194;-97.880;2023-03-03T05:31:37;97265.03;;;17.48;50.09
38880;BME280;25887;30.194;-97.880;2023-03-03T05:34:06;97266.94;;;17.44;49.95
38880;BME280;25887;30.194;-97.880;2023-03-03T05:36:33;97262.78;;;17.40;50.23
38880;BME280;25887;30.194;-97.880;2023-03-03T05:38:59;97286.22;;;17.39;50.03
38880;BME280;25887;30.194;-97.880;2023-03-03T05:41:30;97301.94;;;17.36;50.25
38880;BME280;25887;30.194;-97.880;2023-03-03T05:43:56;97291.59;;;17.34;50.36
38880;BME280;25887;30.194;-97.880;2023-03-03T05:46:22;97296.94;;;17.31;50.41
38880;BME280;25887;30.194;-97.880;2023-03-03T05:48:48;97278.06;;;17.27;50.26
38880;BME280;25887;30.194;-97.880;2023-03-03T05:51:14;97301.56;;;17.24;50.28
38880;BME280;25887;30.194;-97.880;2023-03-03T05:53:39;97313.75;;;17.22;50.29
38880;BME280;25887;30.194;-97.880;2023-03-03T05:56:06;97324.34;;;17.18;50.30
38880;BME280;25887;30.194;-97.880;2023-03-03T05:58:32;97327.91;;;17.15;50.45
38880;BME280;25887;30.194;-97.880;2023-03-03T06:01:12;97328.06;;;17.12;50.42
38880;BME280;25887;30.194;-97.880;2023-03-03T06:03:38;97342.91;;;17.09;50.46
38880;BME280;25887;30.194;-97.880;2023-03-03T06:06:04;97343.03;;;17.06;50.27
38880;BME280;25887;30.194;-97.880;2023-03-03T06:08:30;97346.59;;;17.03;50.18
38880;BME280;25887;30.194;-97.880;2023-03-03T06:10:57;97337.13;;;17.02;50.17
38880;BME280;25887;30.194;-97.880;2023-03-03T06:13:41;97343.38;;;16.98;50.31
38880;BME280;25887;30.194;-97.880;2023-03-03T06:16:07;97327.88;;;16.96;50.15
38880;BME280;25887;30.194;-97.880;2023-03-03T06:18:33;97340.03;;;16.94;50.12
38880;BME280;25887;30.194;-97.880;2023-03-03T06:20:58;97333.16;;;16.93;50.23
38880;BME280;25887;30.194;-97.880;2023-03-03T06:23:24;97331.56;;;16.91;50.15
38880;BME280;25887;30.194;-97.880;2023-03-03T06:25:50;97326.44;;;16.89;49.87
38880;BME280;25887;30.194;-97.880;2023-03-03T06:28:17;97317.81;;;16.89;49.62
38880;BME280;25887;30.194;-97.880;2023-03-03T06:30:43;97321.38;;;16.86;49.70
38880;BME280;25887;30.194;-97.880;2023-03-03T06:33:09;97333.50;;;16.86;49.54
38880;BME280;25887;30.194;-97.880;2023-03-03T06:35:54;97333.56;;;16.84;49.74
38880;BME280;25887;30.194;-97.880;2023-03-03T06:38:20;97356.97;;;16.83;49.20
38880;BME280;25887;30.194;-97.880;2023-03-03T06:40:46;97356.19;;;16.81;49.23
38880;BME280;25887;30.194;-97.880;2023-03-03T06:43:12;97351.00;;;16.81;49.25
38880;BME280;25887;30.194;-97.880;2023-03-03T06:45:39;97360.59;;;16.79;49.27
38880;BME280;25887;30.194;-97.880;2023-03-03T06:48:05;97366.69;;;16.78;48.63
38880;BME280;25887;30.194;-97.880;2023-03-03T06:50:51;97346.91;;;16.75;48.10
38880;BME280;25887;30.194;-97.880;2023-03-03T06:53:17;97346.16;;;16.73;47.99
38880;BME280;25887;30.194;-97.880;2023-03-03T06:55:43;97367.84;;;16.70;48.22
38880;BME280;25887;30.194;-97.880;2023-03-03T06:58:28;97367.94;;;16.67;48.14
38880;BME280;25887;30.194;-97.880;2023-03-03T07:00:55;97359.41;;;16.65;47.69
38880;BME280;25887;30.194;-97.880;2023-03-03T07:05:58;97383.03;;;16.58;47.12
38880;BME280;25887;30.194;-97.880;2023-03-03T07:08:41;97358.06;;;16.55;47.35
38880;BME280;25887;30.194;-97.880;2023-03-03T07:11:07;97353.00;;;16.52;47.12
38880;BME280;25887;30.194;-97.880;2023-03-03T07:13:44;97350.53;;;16.49;46.74
38880;BME280;25887;30.194;-97.880;2023-03-03T07:16:11;97342.88;;;16.46;45.70
38880;BME280;25887;30.194;-97.880;2023-03-03T07:21:05;97317.44;;;16.34;43.88
38880;BME280;25887;30.194;-97.880;2023-03-03T07:23:38;97331.44;;;16.30;44.19
38880;BME280;25887;30.194;-97.880;2023-03-03T07:26:13;97330.69;;;16.26;44.30
38880;BME280;25887;30.194;-97.880;2023-03-03T07:29:02;97330.91;;;16.22;44.67
38880;BME280;25887;30.194;-97.880;2023-03-03T07:31:39;97325.03;;;16.16;44.35
38880;BME280;25887;30.194;-97.880;2023-03-03T07:36:40;97317.75;;;16.04;42.99
38880;BME280;25887;30.194;-97.880;2023-03-03T07:39:20;97304.97;;;16.00;42.40
38880;BME280;25887;30.194;-97.880;2023-03-03T07:44:36;97314.06;;;15.88;42.56
38880;BME280;25887;30.194;-97.880;2023-03-03T07:47:24;97303.03;;;15.83;42.66
38880;BME280;25887;30.194;-97.880;2023-03-03T07:49:49;97301.44;;;15.79;42.91
38880;BME280;25887;30.194;-97.880;2023-03-03T07:54:56;97292.22;;;15.72;42.76
38880;BME280;25887;30.194;-97.880;2023-03-03T07:57:24;97294.16;;;15.67;42.74
38880;BME280;25887;30.194;-97.880;2023-03-03T08:04:48;97291.22;;;15.52;41.97
38880;BME280;25887;30.194;-97.880;2023-03-03T08:07:17;97289.69;;;15.47;41.36
38880;BME280;25887;30.194;-97.880;2023-03-03T08:09:59;97280.31;;;15.44;41.56
38880;BME280;25887;30.194;-97.880;2023-03-03T08:12:40;97291.78;;;15.37;40.40
38880;BME280;25887;30.194;-97.880;2023-03-03T08:15:12;97289.41;;;15.31;39.32
38880;BME280;25887;30.194;-97.880;2023-03-03T08:17:39;97306.88;;;15.24;39.54
38880;BME280;25887;30.194;-97.880;2023-03-03T08:20:49;97299.31;;;15.20;39.45
38880;BME280;25887;30.194;-97.880;2023-03-03T08:22:55;97305.53;;;15.14;38.97
38880;BME280;25887;30.194;-97.880;2023-03-03T08:25:39;97307.44;;;15.09;38.69
38880;BME280;25887;30.194;-97.880;2023-03-03T08:28:13;97308.41;;;15.07;38.70
38880;BME280;25887;30.194;-97.880;2023-03-03T08:30:40;97308.53;;;15.03;39.57
38880;BME280;25887;30.194;-97.880;2023-03-03T08:33:06;97311.19;;;15.00;39.27
38880;BME280;25887;30.194;-97.880;2023-03-03T08:35:31;97305.19;;;15.00;39.26
38880;BME280;25887;30.194;-97.880;2023-03-03T08:37:57;97298.44;;;14.96;38.96
38880;BME280;25887;30.194;-97.880;2023-03-03T08:40:23;97311.44;;;14.94;38.43
38880;BME280;25887;30.194;-97.880;2023-03-03T08:42:49;97315.78;;;14.92;38.84
38880;BME280;25887;30.194;-97.880;2023-03-03T08:45:15;97315.91;;;14.89;38.32
38880;BME280;25887;30.194;-97.880;2023-03-03T08:47:41;97312.63;;;14.84;38.13
38880;BME280;25887;30.194;-97.880;2023-03-03T08:50:07;97316.09;;;14.83;38.22
38880;BME280;25887;30.194;-97.880;2023-03-03T08:52:33;97319.72;;;14.79;37.91
38880;BME280;25887;30.194;-97.880;2023-03-03T08:55:00;97321.47;;;14.77;38.25
38880;BME280;25887;30.194;-97.880;2023-03-03T08:57:26;97336.16;;;14.76;38.62
38880;BME280;25887;30.194;-97.880;2023-03-03T09:00:22;97340.53;;;14.74;38.60
38880;BME280;25887;30.194;-97.880;2023-03-03T09:02:48;97348.28;;;14.74;38.62
38880;BME280;25887;30.194;-97.880;2023-03-03T09:05:15;97348.34;;;14.73;38.75
38880;BME280;25887;30.194;-97.880;2023-03-03T09:07:41;97350.94;;;14.73;38.83
38880;BME280;25887;30.194;-97.880;2023-03-03T09:10:08;97364.75;;;14.72;38.84
38880;BME280;25887;30.194;-97.880;2023-03-03T09:12:40;97363.06;;;14.71;38.71
38880;BME280;25887;30.194;-97.880;2023-03-03T09:15:27;97366.53;;;14.70;38.15
38880;BME280;25887;30.194;-97.880;2023-03-03T09:17:54;97356.19;;;14.70;38.46
38880;BME280;25887;30.194;-97.880;2023-03-03T09:20:36;97365.69;;;14.69;38.53
38880;BME280;25887;30.194;-97.880;2023-03-03T09:25:47;97370.00;;;14.69;37.76
38880;BME280;25887;30.194;-97.880;2023-03-03T09:28:23;97383.84;;;14.68;36.79
38880;BME280;25887;30.194;-97.880;2023-03-03T09:30:49;97403.56;;;14.70;36.37
38880;BME280;25887;30.194;-97.880;2023-03-03T09:33:18;97407.81;;;14.73;35.50
38880;BME280;25887;30.194;-97.880;2023-03-03T09:35:46;97404.31;;;14.74;35.85
38880;BME280;25887;30.194;-97.880;2023-03-03T09:38:18;97404.22;;;14.77;35.89
38880;BME280;25887;30.194;-97.880;2023-03-03T09:46:34;97403.13;;;14.84;35.01
38880;BME280;25887;30.194;-97.880;2023-03-03T09:57:03;97413.31;;;14.89;35.88
38880;BME280;25887;30.194;-97.880;2023-03-03T09:59:38;97413.28;;;14.90;36.00
38880;BME280;25887;30.194;-97.880;2023-03-03T10:02:23;97408.16;;;14.89;35.60
38880;BME280;25887;30.194;-97.880;2023-03-03T10:07:36;97422.84;;;14.88;36.28
38880;BME280;25887;30.194;-97.880;2023-03-03T10:10:18;97431.50;;;14.87;35.89
38880;BME280;25887;30.194;-97.880;2023-03-03T10:15:37;97439.31;;;14.84;36.20
38880;BME280;25887;30.194;-97.880;2023-03-03T10:18:14;97434.16;;;14.84;35.34
38880;BME280;25887;30.194;-97.880;2023-03-03T10:20:46;97436.91;;;14.80;35.19
38880;BME280;25887;30.194;-97.880;2023-03-03T10:23:37;97437.81;;;14.79;35.23
38880;BME280;25887;30.194;-97.880;2023-03-03T10:29:02;97422.38;;;14.75;34.89
38880;BME280;25887;30.194;-97.880;2023-03-03T10:31:40;97423.31;;;14.73;35.38
38880;BME280;25887;30.194;-97.880;2023-03-03T10:34:28;97439.72;;;14.72;35.37
38880;BME280;25887;30.194;-97.880;2023-03-03T10:40:00;97454.47;;;14.68;35.60
38880;BME280;25887;30.194;-97.880;2023-03-03T10:47:54;97451.16;;;14.65;36.01
38880;BME280;25887;30.194;-97.880;2023-03-03T10:53:30;97458.16;;;14.61;34.66
38880;BME280;25887;30.194;-97.880;2023-03-03T10:58:29;97466.06;;;14.57;35.35
38880;BME280;25887;30.194;-97.880;2023-03-03T11:06:56;97462.88;;;14.48;35.88
38880;BME280;25887;30.194;-97.880;2023-03-03T11:11:58;97475.84;;;14.45;35.85
38880;BME280;25887;30.194;-97.880;2023-03-03T11:14:38;97475.94;;;14.42;35.45
38880;BME280;25887;30.194;-97.880;2023-03-03T11:22:21;97483.91;;;14.35;35.87
38880;BME280;25887;30.194;-97.880;2023-03-03T11:28:04;97510.72;;;14.31;35.91
38880;BME280;25887;30.194;-97.880;2023-03-03T11:41:14;97497.31;;;14.18;36.04
38880;BME280;25887;30.194;-97.880;2023-03-03T11:43:55;97491.31;;;14.16;36.27
38880;BME280;25887;30.194;-97.880;2023-03-03T11:46:24;97502.56;;;14.15;36.35
38880;BME280;25887;30.194;-97.880;2023-03-03T11:48:57;97493.16;;;14.12;36.05
38880;BME280;25887;30.194;-97.880;2023-03-03T11:54:00;97505.41;;;14.06;36.06
38880;BME280;25887;30.194;-97.880;2023-03-03T11:56:47;97509.78;;;14.04;36.38
38880;BME280;25887;30.194;-97.880;2023-03-03T12:02:02;97518.47;;;14.00;36.33
38880;BME280;25887;30.194;-97.880;2023-03-03T12:04:31;97514.19;;;13.99;36.57
38880;BME280;25887;30.194;-97.880;2023-03-03T12:12:45;97530.72;;;13.93;36.61
38880;BME280;25887;30.194;-97.880;2023-03-03T12:15:03;97528.22;;;13.90;36.67
38880;BME280;25887;30.194;-97.880;2023-03-03T12:22:57;97533.53;;;13.84;36.70
38880;BME280;25887;30.194;-97.880;2023-03-03T12:25:45;97531.09;;;13.79;37.00
38880;BME280;25887;30.194;-97.880;2023-03-03T12:28:19;97533.69;;;13.79;36.54
38880;BME280;25887;30.194;-97.880;2023-03-03T12:33:24;97524.31;;;13.75;37.05
38880;BME280;25887;30.194;-97.880;2023-03-03T12:36:00;97522.63;;;13.74;37.06
38880;BME280;25887;30.194;-97.880;2023-03-03T12:46:18;97542.47;;;13.72;37.24
38880;BME280;25887;30.194;-97.880;2023-03-03T12:48:46;97548.53;;;13.71;37.02
38880;BME280;25887;30.194;-97.880;2023-03-03T12:51:33;97552.00;;;13.70;37.33
38880;BME280;25887;30.194;-97.880;2023-03-03T12:54:06;97566.66;;;13.68;37.12
38880;BME280;25887;30.194;-97.880;2023-03-03T12:56:54;97571.84;;;13.66;37.35
38880;BME280;25887;30.194;-97.880;2023-03-03T13:15:36;97622.72;;;13.63;37.62
38880;BME280;25887;30.194;-97.880;2023-03-03T13:20:48;97639.91;;;13.64;37.70
38880;BME280;25887;30.194;-97.880;2023-03-03T13:23:31;97646.75;;;13.65;37.91
38880;BME280;25887;30.194;-97.880;2023-03-03T13:31:36;97663.84;;;13.71;37.70
38880;BME280;25887;30.194;-97.880;2023-03-03T13:40:15;97683.66;;;13.69;37.90
38880;BME280;25887;30.194;-97.880;2023-03-03T13:42:56;97687.06;;;13.69;37.53
38880;BME280;25887;30.194;-97.880;2023-03-03T13:45:24;97689.66;;;13.69;37.86
38880;BME280;25887;30.194;-97.880;2023-03-03T13:48:27;97697.38;;;13.71;37.18
38880;BME280;25887;30.194;-97.880;2023-03-03T13:51:20;97696.50;;;13.72;37.05
38880;BME280;25887;30.194;-97.880;2023-03-03T13:56:44;97704.50;;;14.31;37.22
38880;BME280;25887;30.194;-97.880;2023-03-03T14:04:58;97712.69;;;15.40;36.44
38880;BME280;25887;30.194;-97.880;2023-03-03T14:10:12;97721.97;;;15.76;35.69
38880;BME280;25887;30.194;-97.880;2023-03-03T14:20:23;97743.69;;;16.25;36.09
38880;BME280;25887;30.194;-97.880;2023-03-03T14:23:13;97743.06;;;16.19;36.23
38880;BME280;25887;30.194;-97.880;2023-03-03T14:25:56;97753.16;;;16.00;36.49
38880;BME280;25887;30.194;-97.880;2023-03-03T14:28:23;97758.09;;;15.81;36.36
38880;BME280;25887;30.194;-97.880;2023-03-03T14:30:50;97763.53;;;15.72;36.39
38880;BME280;25887;30.194;-97.880;2023-03-03T14:33:18;97766.31;;;15.66;36.36
38880;BME280;25887;30.194;-97.880;2023-03-03T14:35:59;97762.97;;;15.62;36.24
38880;BME280;25887;30.194;-97.880;2023-03-03T14:43:36;97781.66;;;15.72;36.74
38880;BME280;25887;30.194;-97.880;2023-03-03T14:48:48;97780.56;;;15.79;36.51
38880;BME280;25887;30.194;-97.880;2023-03-03T14:51:22;97778.56;;;15.88;36.46
38880;BME280;25887;30.194;-97.880;2023-03-03T14:53:48;97781.00;;;15.93;36.47
38880;BME280;25887;30.194;-97.880;2023-03-03T14:56:25;97778.34;;;15.96;36.51
38880;BME280;25887;30.194;-97.880;2023-03-03T14:58:53;97774.84;;;15.97;36.35
38880;BME280;25887;30.194;-97.880;2023-03-03T15:01:30;97774.78;;;15.99;36.48
38880;BME280;25887;30.194;-97.880;2023-03-03T15:04:00;97768.66;;;16.01;36.55
38880;BME280;25887;30.194;-97.880;2023-03-03T15:06:32;97774.56;;;16.06;36.66
38880;BME280;25887;30.194;-97.880;2023-03-03T15:12:21;97794.91;;;16.19;36.45
38880;BME280;25887;30.194;-97.880;2023-03-03T15:14:48;97787.88;;;16.22;36.29
38880;BME280;25887;30.194;-97.880;2023-03-03T15:17:28;97789.66;;;16.47;36.38
38880;BME280;25887;30.194;-97.880;2023-03-03T15:20:00;97792.44;;;17.17;35.79
38880;BME280;25887;30.194;-97.880;2023-03-03T15:28:21;97804.59;;;17.16;35.91
38880;BME280;25887;30.194;-97.880;2023-03-03T15:30:50;97802.84;;;17.17;36.23
38880;BME280;25887;30.194;-97.880;2023-03-03T15:33:22;97795.75;;;17.22;36.28
38880;BME280;25887;30.194;-97.880;2023-03-03T15:35:56;97796.25;;;17.32;36.13
38880;BME280;25887;30.194;-97.880;2023-03-03T15:38:29;97792.53;;;17.39;35.96
38880;BME280;25887;30.194;-97.880;2023-03-03T15:41:07;97801.72;;;17.47;35.96
38880;BME280;25887;30.194;-97.880;2023-03-03T15:57:20;97835.63;;;18.13;35.76
38880;BME280;25887;30.194;-97.880;2023-03-03T16:02:45;97840.47;;;18.22;35.22
38880;BME280;25887;30.194;-97.880;2023-03-03T16:05:15;97844.53;;;18.29;35.20
38880;BME280;25887;30.194;-97.880;2023-03-03T16:10:12;97843.06;;;18.44;35.29
38880;BME280;25887;30.194;-97.880;2023-03-03T16:12:50;97850.50;;;18.53;35.39
38880;BME280;25887;30.194;-97.880;2023-03-03T16:23:09;97833.84;;;18.79;35.18
38880;BME280;25887;30.194;-97.880;2023-03-03T16:25:57;97831.06;;;18.84;34.88
38880;BME280;25887;30.194;-97.880;2023-03-03T16:33:35;97838.00;;;19.04;34.90
38880;BME280;25887;30.194;-97.880;2023-03-03T16:38:40;97840.03;;;19.17;34.70
38880;BME280;25887;30.194;-97.880;2023-03-03T16:41:33;97839.78;;;19.24;34.61
38880;BME280;25887;30.194;-97.880;2023-03-03T16:44:03;97836.75;;;19.33;34.71
38880;BME280;25887;30.194;-97.880;2023-03-03T16:59:49;97830.22;;;20.01;34.32
38880;BME280;25887;30.194;-97.880;2023-03-03T17:04:57;97825.75;;;20.22;34.25
38880;BME280;25887;30.194;-97.880;2023-03-03T17:10:27;97824.88;;;20.40;33.79
38880;BME280;25887;30.194;-97.880;2023-03-03T17:20:47;97821.25;;;20.79;33.31
38880;BME280;25887;30.194;-97.880;2023-03-03T17:23:30;97822.78;;;20.83;33.43